sensor_id;sensor_type;location;lat;lon;timestamp;temperature;humidity
45685;DHT22;46836;48.388;16.210;2023-12-07T00:00:06;2.10;99.90
45685;DHT22;46836;48.388;16.210;2023-12-07T00:02:33;2.10;99.90
45685;DHT22;46836;48.388;16.210;2023-12-07T00:05:00;2.10;99.90
45685;DHT22;46836;48.388;16.210;2023-12-07T00:07:27;2.10;99.90
45685;DHT22;46836;48.388;16.210;2023-12-07T00:09:54;2.20;99.90
45685;DHT22;46836;48.388;16.210;2023-12-07T00:12:21;2.20;99.90
45685;DHT22;46836;48.388;16.210;2023-12-07T00:14:49;2.20;99.90
45685;DHT22;46836;48.388;16.210;2023-12-07T00:17:16;2.20;99.90
45685;DHT22;46836;48.388;16.210;2023-12-07T00:19:43;2.20;99.90
45685;DHT22;46836;48.388;16.210;2023-12-07T00:22:10;2.20;99.90
45685;DHT22;46836;48.388;16.210;2023-12-07T00:24:37;2.20;99.90
45685;DHT22;46836;48.388;16.210;2023-12-07T00:27:04;2.20;99.90
45685;DHT22;46836;48.388;16.210;2023-12-07T00:29:32;2.20;99.90
45685;DHT22;46836;48.388;16.210;2023-12-07T00:31:59;2.30;99.90
45685;DHT22;46836;48.388;16.210;2023-12-07T00:34:26;2.30;99.90
45685;DHT22;46836;48.388;16.210;2023-12-07T00:36:53;2.30;99.90
45685;DHT22;46836;48.388;16.210;2023-12-07T00:39:21;2.30;99.90
45685;DHT22;46836;48.388;16.210;2023-12-07T00:41:48;2.30;99.90
45685;DHT22;46836;48.388;16.210;2023-12-07T00:44:15;2.30;99.90
45685;DHT22;46836;48.388;16.210;2023-12-07T00:46:42;2.40;99.90
45685;DHT22;46836;48.388;16.210;2023-12-07T00:49:09;2.40;99.90
45685;DHT22;46836;48.388;16.210;2023-12-07T00:51:36;2.40;99.90
45685;DHT22;46836;48.388;16.210;2023-12-07T00:54:04;2.40;99.90
45685;DHT22;46836;48.388;16.210;2023-12-07T00:56:31;2.40;99.90
45685;DHT22;46836;48.388;16.210;2023-12-07T00:58:58;2.40;99.90
45685;DHT22;46836;48.388;16.210;2023-12-07T01:01:25;2.30;99.90
45685;DHT22;46836;48.388;16.210;2023-12-07T01:03:52;2.40;99.90
45685;DHT22;46836;48.388;16.210;2023-12-07T01:06:19;2.40;99.90
45685;DHT22;46836;48.388;16.210;2023-12-07T01:08:46;2.40;99.90
45685;DHT22;46836;48.388;16.210;2023-12-07T01:11:14;2.40;99.90
45685;DHT22;46836;48.388;16.210;2023-12-07T01:13:41;2.40;99.90
45685;DHT22;46836;48.388;16.210;2023-12-07T01:16:08;2.40;99.90
45685;DHT22;46836;48.388;16.210;2023-12-07T01:18:35;2.40;99.90
45685;DHT22;46836;48.388;16.210;2023-12-07T01:21:02;2.40;99.90
45685;DHT22;46836;48.388;16.210;2023-12-07T01:23:30;2.40;99.90
45685;DHT22;46836;48.388;16.210;2023-12-07T01:25:57;2.40;99.90
45685;DHT22;46836;48.388;16.210;2023-12-07T01:28:24;2.40;99.90
45685;DHT22;46836;48.388;16.210;2023-12-07T01:30:51;2.40;99.90
45685;DHT22;46836;48.388;16.210;2023-12-07T01:33:18;2.50;99.90
45685;DHT22;46836;48.388;16.210;2023-12-07T01:35:45;2.50;99.90
45685;DHT22;46836;48.388;16.210;2023-12-07T01:38:12;2.40;99.90
45685;DHT22;46836;48.388;16.210;2023-12-07T01:40:39;2.40;99.90
45685;DHT22;46836;48.388;16.210;2023-12-07T01:43:06;2.40;99.90
45685;DHT22;46836;48.388;16.210;2023-12-07T01:45:33;2.40;99.90
45685;DHT22;46836;48.388;16.210;2023-12-07T01:48:01;2.40;99.90
45685;DHT22;46836;48.388;16.210;2023-12-07T01:50:29;2.40;99.90
45685;DHT22;46836;48.388;16.210;2023-12-07T01:53:01;2.40;99.90
45685;DHT22;46836;48.388;16.210;2023-12-07T01:55:30;2.40;99.90
45685;DHT22;46836;48.388;16.210;2023-12-07T01:57:58;2.40;99.90
45685;DHT22;46836;48.388;16.210;2023-12-07T02:00:26;2.40;99.90
45685;DHT22;46836;48.388;16.210;2023-12-07T02:02:55;2.40;99.90
45685;DHT22;46836;48.388;16.210;2023-12-07T02:05:22;2.40;99.90
45685;DHT22;46836;48.388;16.210;2023-12-07T02:07:49;2.50;99.90
45685;DHT22;46836;48.388;16.210;2023-12-07T02:10:18;2.50;99.90
45685;DHT22;46836;48.388;16.210;2023-12-07T02:12:47;2.50;99.90
45685;DHT22;46836;48.388;16.210;2023-12-07T02:15:14;2.50;99.90
45685;DHT22;46836;48.388;16.210;2023-12-07T02:20:30;2.50;99.90
45685;DHT22;46836;48.388;16.210;2023-12-07T02:23:02;2.50;99.90
45685;DHT22;46836;48.388;16.210;2023-12-07T02:25:52;2.50;99.90
45685;DHT22;46836;48.388;16.210;2023-12-07T02:28:20;2.60;99.90
45685;DHT22;46836;48.388;16.210;2023-12-07T02:30:48;2.60;99.90
45685;DHT22;46836;48.388;16.210;2023-12-07T02:33:15;2.60;99.90
45685;DHT22;46836;48.388;16.210;2023-12-07T02:35:43;2.60;99.90
45685;DHT22;46836;48.388;16.210;2023-12-07T02:38:10;2.60;99.90
45685;DHT22;46836;48.388;16.210;2023-12-07T02:40:38;2.60;99.90
45685;DHT22;46836;48.388;16.210;2023-12-07T02:43:07;2.60;99.90
45685;DHT22;46836;48.388;16.210;2023-12-07T02:45:35;2.60;99.90
45685;DHT22;46836;48.388;16.210;2023-12-07T02:48:02;2.60;99.90
45685;DHT22;46836;48.388;16.210;2023-12-07T02:50:29;2.60;99.90
45685;DHT22;46836;48.388;16.210;2023-12-07T02:52:56;2.60;99.90
45685;DHT22;46836;48.388;16.210;2023-12-07T02:55:23;2.60;99.90
45685;DHT22;46836;48.388;16.210;2023-12-07T02:57:50;2.60;99.90
45685;DHT22;46836;48.388;16.210;2023-12-07T03:00:18;2.60;99.90
45685;DHT22;46836;48.388;16.210;2023-12-07T03:02:45;2.60;99.90
45685;DHT22;46836;48.388;16.210;2023-12-07T03:05:14;2.70;99.90
45685;DHT22;46836;48.388;16.210;2023-12-07T03:07:41;2.70;99.90
45685;DHT22;46836;48.388;16.210;2023-12-07T03:10:08;2.70;99.90
45685;DHT22;46836;48.388;16.210;2023-12-07T03:12:36;2.70;99.90
45685;DHT22;46836;48.388;16.210;2023-12-07T03:15:03;2.80;99.90
45685;DHT22;46836;48.388;16.210;2023-12-07T03:17:31;2.80;99.90
45685;DHT22;46836;48.388;16.210;2023-12-07T03:19:58;2.80;99.90
45685;DHT22;46836;48.388;16.210;2023-12-07T03:22:25;2.80;99.90
45685;DHT22;46836;48.388;16.210;2023-12-07T03:24:53;2.80;99.90
45685;DHT22;46836;48.388;16.210;2023-12-07T03:27:20;2.80;99.90
45685;DHT22;46836;48.388;16.210;2023-12-07T03:29:47;2.80;99.90
45685;DHT22;46836;48.388;16.210;2023-12-07T03:32:14;2.90;99.90
45685;DHT22;46836;48.388;16.210;2023-12-07T03:34:41;2.90;99.90
45685;DHT22;46836;48.388;16.210;2023-12-07T03:37:08;2.80;99.90
45685;DHT22;46836;48.388;16.210;2023-12-07T03:39:36;2.90;99.90
45685;DHT22;46836;48.388;16.210;2023-12-07T03:42:03;2.90;99.90
45685;DHT22;46836;48.388;16.210;2023-12-07T03:44:50;2.90;99.90
45685;DHT22;46836;48.388;16.210;2023-12-07T03:47:17;2.90;99.90
45685;DHT22;46836;48.388;16.210;2023-12-07T03:49:44;2.90;99.90
45685;DHT22;46836;48.388;16.210;2023-12-07T03:52:11;2.90;99.90
45685;DHT22;46836;48.388;16.210;2023-12-07T03:54:39;2.90;99.90
45685;DHT22;46836;48.388;16.210;2023-12-07T03:57:06;2.90;99.90
45685;DHT22;46836;48.388;16.210;2023-12-07T03:59:36;2.90;99.90
45685;DHT22;46836;48.388;16.210;2023-12-07T04:02:04;3.00;99.90
45685;DHT22;46836;48.388;16.210;2023-12-07T04:04:31;3.00;99.90
45685;DHT22;46836;48.388;16.210;2023-12-07T04:06:58;3.00;99.90
45685;DHT22;46836;48.388;16.210;2023-12-07T04:09:26;3.00;99.90
45685;DHT22;46836;48.388;16.210;2023-12-07T04:11:53;3.10;99.90
45685;DHT22;46836;48.388;16.210;2023-12-07T04:14:20;3.20;99.90
45685;DHT22;46836;48.388;16.210;2023-12-07T04:16:47;3.20;99.90
45685;DHT22;46836;48.388;16.210;2023-12-07T04:19:15;3.30;99.90
45685;DHT22;46836;48.388;16.210;2023-12-07T04:21:43;3.30;99.90
45685;DHT22;46836;48.388;16.210;2023-12-07T04:24:10;3.30;99.90
45685;DHT22;46836;48.388;16.210;2023-12-07T04:26:37;3.30;99.90
45685;DHT22;46836;48.388;16.210;2023-12-07T04:29:04;3.30;99.90
45685;DHT22;46836;48.388;16.210;2023-12-07T04:31:31;3.30;99.90
45685;DHT22;46836;48.388;16.210;2023-12-07T04:33:58;3.30;99.90
45685;DHT22;46836;48.388;16.210;2023-12-07T04:36:26;3.30;99.90
45685;DHT22;46836;48.388;16.210;2023-12-07T04:38:53;3.20;99.90
45685;DHT22;46836;48.388;16.210;2023-12-07T04:41:20;3.20;99.90
45685;DHT22;46836;48.388;16.210;2023-12-07T04:43:48;3.30;99.90
45685;DHT22;46836;48.388;16.210;2023-12-07T04:46:15;3.20;99.90
45685;DHT22;46836;48.388;16.210;2023-12-07T04:48:43;3.20;99.90
45685;DHT22;46836;48.388;16.210;2023-12-07T04:51:10;3.20;99.90
45685;DHT22;46836;48.388;16.210;2023-12-07T04:53:38;3.20;99.90
45685;DHT22;46836;48.388;16.210;2023-12-07T04:56:05;3.20;99.90
45685;DHT22;46836;48.388;16.210;2023-12-07T04:58:33;3.20;99.90
45685;DHT22;46836;48.388;16.210;2023-12-07T05:01:00;3.30;99.90
45685;DHT22;46836;48.388;16.210;2023-12-07T05:03:27;3.30;99.90
45685;DHT22;46836;48.388;16.210;2023-12-07T05:05:54;3.30;99.90
45685;DHT22;46836;48.388;16.210;2023-12-07T05:08:21;3.30;99.90
45685;DHT22;46836;48.388;16.210;2023-12-07T05:10:49;3.40;99.90
45685;DHT22;46836;48.388;16.210;2023-12-07T05:13:16;3.40;99.90
45685;DHT22;46836;48.388;16.210;2023-12-07T05:15:43;3.40;99.90
45685;DHT22;46836;48.388;16.210;2023-12-07T05:18:10;3.40;99.90
45685;DHT22;46836;48.388;16.210;2023-12-07T05:20:37;3.50;99.90
45685;DHT22;46836;48.388;16.210;2023-12-07T05:23:06;3.50;99.90
45685;DHT22;46836;48.388;16.210;2023-12-07T05:25:33;3.50;99.90
45685;DHT22;46836;48.388;16.210;2023-12-07T05:28:00;3.50;99.90
45685;DHT22;46836;48.388;16.210;2023-12-07T05:30:27;3.50;99.90
45685;DHT22;46836;48.388;16.210;2023-12-07T05:32:54;3.50;99.90
45685;DHT22;46836;48.388;16.210;2023-12-07T05:35:22;3.50;99.90
45685;DHT22;46836;48.388;16.210;2023-12-07T05:37:50;3.50;99.90
45685;DHT22;46836;48.388;16.210;2023-12-07T05:40:17;3.50;99.90
45685;DHT22;46836;48.388;16.210;2023-12-07T05:42:49;3.50;99.90
45685;DHT22;46836;48.388;16.210;2023-12-07T05:45:16;3.50;99.90
45685;DHT22;46836;48.388;16.210;2023-12-07T05:47:43;3.50;99.90
45685;DHT22;46836;48.388;16.210;2023-12-07T05:50:11;3.50;99.90
45685;DHT22;46836;48.388;16.210;2023-12-07T05:52:38;3.50;99.90
45685;DHT22;46836;48.388;16.210;2023-12-07T05:55:05;3.50;99.90
45685;DHT22;46836;48.388;16.210;2023-12-07T05:57:33;3.40;99.90
45685;DHT22;46836;48.388;16.210;2023-12-07T06:00:00;3.40;99.90
45685;DHT22;46836;48.388;16.210;2023-12-07T06:02:27;3.40;99.90
45685;DHT22;46836;48.388;16.210;2023-12-07T06:04:54;3.40;99.90
45685;DHT22;46836;48.388;16.210;2023-12-07T06:07:21;3.40;99.90
45685;DHT22;46836;48.388;16.210;2023-12-07T06:09:48;3.50;99.90
45685;DHT22;46836;48.388;16.210;2023-12-07T06:12:15;3.40;99.90
45685;DHT22;46836;48.388;16.210;2023-12-07T06:14:43;3.40;99.90
45685;DHT22;46836;48.388;16.210;2023-12-07T06:17:10;3.40;99.90
45685;DHT22;46836;48.388;16.210;2023-12-07T06:19:37;3.40;99.90
45685;DHT22;46836;48.388;16.210;2023-12-07T06:22:04;3.40;99.90
45685;DHT22;46836;48.388;16.210;2023-12-07T06:24:31;3.40;99.90
45685;DHT22;46836;48.388;16.210;2023-12-07T06:26:59;3.40;99.90
45685;DHT22;46836;48.388;16.210;2023-12-07T06:29:28;3.40;99.90
45685;DHT22;46836;48.388;16.210;2023-12-07T06:31:57;3.40;99.90
45685;DHT22;46836;48.388;16.210;2023-12-07T06:34:24;3.40;99.90
45685;DHT22;46836;48.388;16.210;2023-12-07T06:36:51;3.40;99.90
45685;DHT22;46836;48.388;16.210;2023-12-07T06:39:18;3.40;99.90
45685;DHT22;46836;48.388;16.210;2023-12-07T06:41:45;3.40;99.90
45685;DHT22;46836;48.388;16.210;2023-12-07T06:44:13;3.40;99.90
45685;DHT22;46836;48.388;16.210;2023-12-07T06:46:40;3.30;99.90
45685;DHT22;46836;48.388;16.210;2023-12-07T06:49:07;3.30;99.90
45685;DHT22;46836;48.388;16.210;2023-12-07T06:51:35;3.30;99.90
45685;DHT22;46836;48.388;16.210;2023-12-07T06:54:02;3.20;99.90
45685;DHT22;46836;48.388;16.210;2023-12-07T06:56:29;3.20;99.90
45685;DHT22;46836;48.388;16.210;2023-12-07T06:58:56;3.20;99.90
45685;DHT22;46836;48.388;16.210;2023-12-07T07:01:23;3.20;99.90
45685;DHT22;46836;48.388;16.210;2023-12-07T07:03:51;3.20;99.90
45685;DHT22;46836;48.388;16.210;2023-12-07T07:06:18;3.20;99.90
45685;DHT22;46836;48.388;16.210;2023-12-07T07:08:45;3.20;99.90
45685;DHT22;46836;48.388;16.210;2023-12-07T07:11:13;3.20;99.90
45685;DHT22;46836;48.388;16.210;2023-12-07T07:13:46;3.20;99.90
45685;DHT22;46836;48.388;16.210;2023-12-07T07:16:13;3.20;99.90
45685;DHT22;46836;48.388;16.210;2023-12-07T07:18:41;3.20;99.90
45685;DHT22;46836;48.388;16.210;2023-12-07T07:21:08;3.30;99.90
45685;DHT22;46836;48.388;16.210;2023-12-07T07:23:36;3.30;99.90
45685;DHT22;46836;48.388;16.210;2023-12-07T07:26:03;3.30;99.90
45685;DHT22;46836;48.388;16.210;2023-12-07T07:28:30;3.30;99.90
45685;DHT22;46836;48.388;16.210;2023-12-07T07:30:57;3.40;99.90
45685;DHT22;46836;48.388;16.210;2023-12-07T07:33:25;3.40;99.90
45685;DHT22;46836;48.388;16.210;2023-12-07T07:35:52;3.50;99.90
45685;DHT22;46836;48.388;16.210;2023-12-07T07:38:21;3.50;99.90
45685;DHT22;46836;48.388;16.210;2023-12-07T07:40:49;3.50;99.90
45685;DHT22;46836;48.388;16.210;2023-12-07T07:43:17;3.50;99.90
45685;DHT22;46836;48.388;16.210;2023-12-07T07:45:45;3.60;99.90
45685;DHT22;46836;48.388;16.210;2023-12-07T07:48:13;3.60;99.90
45685;DHT22;46836;48.388;16.210;2023-12-07T07:50:40;3.60;99.90
45685;DHT22;46836;48.388;16.210;2023-12-07T07:53:07;3.60;99.90
45685;DHT22;46836;48.388;16.210;2023-12-07T07:55:34;3.70;99.90
45685;DHT22;46836;48.388;16.210;2023-12-07T07:58:02;3.70;99.90
45685;DHT22;46836;48.388;16.210;2023-12-07T08:00:29;3.70;99.90
45685;DHT22;46836;48.388;16.210;2023-12-07T08:02:57;3.80;99.90
45685;DHT22;46836;48.388;16.210;2023-12-07T08:05:25;3.80;99.90
45685;DHT22;46836;48.388;16.210;2023-12-07T08:07:52;3.90;99.90
45685;DHT22;46836;48.388;16.210;2023-12-07T08:10:19;3.90;99.90
45685;DHT22;46836;48.388;16.210;2023-12-07T08:12:47;3.90;99.90
45685;DHT22;46836;48.388;16.210;2023-12-07T08:15:14;4.00;99.90
45685;DHT22;46836;48.388;16.210;2023-12-07T08:17:42;4.00;99.90
45685;DHT22;46836;48.388;16.210;2023-12-07T08:20:10;4.00;99.90
45685;DHT22;46836;48.388;16.210;2023-12-07T08:22:38;4.00;99.90
45685;DHT22;46836;48.388;16.210;2023-12-07T08:25:06;4.00;99.90
45685;DHT22;46836;48.388;16.210;2023-12-07T08:27:39;4.00;99.90
45685;DHT22;46836;48.388;16.210;2023-12-07T08:30:06;4.10;99.90
45685;DHT22;46836;48.388;16.210;2023-12-07T08:32:37;4.10;99.90
45685;DHT22;46836;48.388;16.210;2023-12-07T08:35:06;4.10;99.90
45685;DHT22;46836;48.388;16.210;2023-12-07T08:37:33;4.10;99.90
45685;DHT22;46836;48.388;16.210;2023-12-07T08:40:00;4.10;99.90
45685;DHT22;46836;48.388;16.210;2023-12-07T08:42:27;4.20;99.90
45685;DHT22;46836;48.388;16.210;2023-12-07T08:44:54;4.20;99.90
45685;DHT22;46836;48.388;16.210;2023-12-07T08:47:22;4.30;99.90
45685;DHT22;46836;48.388;16.210;2023-12-07T08:49:49;4.30;99.90
45685;DHT22;46836;48.388;16.210;2023-12-07T08:52:18;4.30;99.90
45685;DHT22;46836;48.388;16.210;2023-12-07T08:55:01;4.40;99.90
45685;DHT22;46836;48.388;16.210;2023-12-07T08:57:28;4.40;99.90
45685;DHT22;46836;48.388;16.210;2023-12-07T08:59:55;4.40;99.90
45685;DHT22;46836;48.388;16.210;2023-12-07T09:02:22;4.50;99.90
45685;DHT22;46836;48.388;16.210;2023-12-07T09:05:08;4.60;99.90
45685;DHT22;46836;48.388;16.210;2023-12-07T09:07:36;4.80;99.90
45685;DHT22;46836;48.388;16.210;2023-12-07T09:10:04;4.70;99.90
45685;DHT22;46836;48.388;16.210;2023-12-07T09:12:31;4.70;99.90
45685;DHT22;46836;48.388;16.210;2023-12-07T09:15:06;4.70;99.90
45685;DHT22;46836;48.388;16.210;2023-12-07T09:17:38;4.70;99.90
45685;DHT22;46836;48.388;16.210;2023-12-07T09:20:07;4.70;99.90
45685;DHT22;46836;48.388;16.210;2023-12-07T09:22:43;4.70;99.90
45685;DHT22;46836;48.388;16.210;2023-12-07T09:25:12;4.80;99.90
45685;DHT22;46836;48.388;16.210;2023-12-07T09:27:39;4.80;99.90
45685;DHT22;46836;48.388;16.210;2023-12-07T09:30:08;4.80;99.90
45685;DHT22;46836;48.388;16.210;2023-12-07T09:32:41;4.80;99.90
45685;DHT22;46836;48.388;16.210;2023-12-07T09:35:12;4.80;99.90
45685;DHT22;46836;48.388;16.210;2023-12-07T09:37:48;4.80;99.90
45685;DHT22;46836;48.388;16.210;2023-12-07T09:40:17;4.90;99.90
45685;DHT22;46836;48.388;16.210;2023-12-07T09:42:46;5.00;99.90
45685;DHT22;46836;48.388;16.210;2023-12-07T09:45:14;4.90;99.90
45685;DHT22;46836;48.388;16.210;2023-12-07T09:47:50;4.90;99.90
45685;DHT22;46836;48.388;16.210;2023-12-07T09:50:19;5.00;99.90
45685;DHT22;46836;48.388;16.210;2023-12-07T09:52:52;5.00;99.90
45685;DHT22;46836;48.388;16.210;2023-12-07T09:55:33;5.10;99.90
45685;DHT22;46836;48.388;16.210;2023-12-07T09:58:04;5.20;99.90
45685;DHT22;46836;48.388;16.210;2023-12-07T10:00:34;5.30;99.90
45685;DHT22;46836;48.388;16.210;2023-12-07T10:03:02;5.30;99.90
45685;DHT22;46836;48.388;16.210;2023-12-07T10:05:29;5.30;99.90
45685;DHT22;46836;48.388;16.210;2023-12-07T10:07:57;5.30;99.90
45685;DHT22;46836;48.388;16.210;2023-12-07T10:10:24;5.30;99.90
45685;DHT22;46836;48.388;16.210;2023-12-07T10:12:55;5.30;99.90
45685;DHT22;46836;48.388;16.210;2023-12-07T10:15:23;5.30;99.90
45685;DHT22;46836;48.388;16.210;2023-12-07T10:17:54;5.30;99.90
45685;DHT22;46836;48.388;16.210;2023-12-07T10:20:23;5.30;99.90
45685;DHT22;46836;48.388;16.210;2023-12-07T10:23:05;5.30;99.90
45685;DHT22;46836;48.388;16.210;2023-12-07T10:25:42;5.40;99.90
45685;DHT22;46836;48.388;16.210;2023-12-07T10:28:10;5.40;99.90
45685;DHT22;46836;48.388;16.210;2023-12-07T10:30:40;5.40;99.90
45685;DHT22;46836;48.388;16.210;2023-12-07T10:33:10;5.40;99.90
45685;DHT22;46836;48.388;16.210;2023-12-07T10:35:41;5.40;99.90
45685;DHT22;46836;48.388;16.210;2023-12-07T10:38:09;5.50;99.90
45685;DHT22;46836;48.388;16.210;2023-12-07T10:40:37;5.50;99.90
45685;DHT22;46836;48.388;16.210;2023-12-07T10:43:06;5.50;99.90
45685;DHT22;46836;48.388;16.210;2023-12-07T10:45:35;5.40;99.90
45685;DHT22;46836;48.388;16.210;2023-12-07T10:48:09;5.30;99.90
45685;DHT22;46836;48.388;16.210;2023-12-07T10:50:42;5.30;99.90
45685;DHT22;46836;48.388;16.210;2023-12-07T10:53:27;5.30;99.90
45685;DHT22;46836;48.388;16.210;2023-12-07T10:56:00;5.30;99.90
45685;DHT22;46836;48.388;16.210;2023-12-07T10:58:28;5.30;99.90
45685;DHT22;46836;48.388;16.210;2023-12-07T11:00:57;5.30;99.90
45685;DHT22;46836;48.388;16.210;2023-12-07T11:03:25;5.30;99.90
45685;DHT22;46836;48.388;16.210;2023-12-07T11:05:54;5.30;99.90
45685;DHT22;46836;48.388;16.210;2023-12-07T11:08:49;5.10;99.90
45685;DHT22;46836;48.388;16.210;2023-12-07T11:11:47;5.00;99.90
45685;DHT22;46836;48.388;16.210;2023-12-07T11:14:16;5.00;99.90
45685;DHT22;46836;48.388;16.210;2023-12-07T11:16:46;5.00;99.90
45685;DHT22;46836;48.388;16.210;2023-12-07T11:22:07;5.20;99.90
45685;DHT22;46836;48.388;16.210;2023-12-07T11:24:34;5.30;99.90
45685;DHT22;46836;48.388;16.210;2023-12-07T11:27:03;5.40;99.90
45685;DHT22;46836;48.388;16.210;2023-12-07T11:29:31;5.50;99.90
45685;DHT22;46836;48.388;16.210;2023-12-07T11:32:02;5.50;99.90
45685;DHT22;46836;48.388;16.210;2023-12-07T11:34:43;5.60;99.90
45685;DHT22;46836;48.388;16.210;2023-12-07T11:37:15;5.70;99.90
45685;DHT22;46836;48.388;16.210;2023-12-07T11:39:44;5.80;99.90
45685;DHT22;46836;48.388;16.210;2023-12-07T11:42:20;5.90;99.90
45685;DHT22;46836;48.388;16.210;2023-12-07T11:44:50;5.90;99.90
45685;DHT22;46836;48.388;16.210;2023-12-07T11:47:20;5.80;99.90
45685;DHT22;46836;48.388;16.210;2023-12-07T11:49:48;5.80;99.90
45685;DHT22;46836;48.388;16.210;2023-12-07T11:52:17;5.70;99.90
45685;DHT22;46836;48.388;16.210;2023-12-07T11:54:46;5.60;99.90
45685;DHT22;46836;48.388;16.210;2023-12-07T11:57:17;5.60;99.90
45685;DHT22;46836;48.388;16.210;2023-12-07T11:59:45;5.60;99.90
45685;DHT22;46836;48.388;16.210;2023-12-07T12:02:13;5.50;99.90
45685;DHT22;46836;48.388;16.210;2023-12-07T12:04:41;5.50;99.90
45685;DHT22;46836;48.388;16.210;2023-12-07T12:07:08;5.50;99.90
45685;DHT22;46836;48.388;16.210;2023-12-07T12:09:36;5.40;99.90
45685;DHT22;46836;48.388;16.210;2023-12-07T12:12:03;5.40;99.90
45685;DHT22;46836;48.388;16.210;2023-12-07T12:14:30;5.40;99.90
45685;DHT22;46836;48.388;16.210;2023-12-07T12:16:58;5.40;99.90
45685;DHT22;46836;48.388;16.210;2023-12-07T12:19:25;5.40;99.90
45685;DHT22;46836;48.388;16.210;2023-12-07T12:22:03;5.30;99.90
45685;DHT22;46836;48.388;16.210;2023-12-07T12:24:35;5.30;99.90
45685;DHT22;46836;48.388;16.210;2023-12-07T12:27:04;5.30;99.90
45685;DHT22;46836;48.388;16.210;2023-12-07T12:29:32;5.30;99.90
45685;DHT22;46836;48.388;16.210;2023-12-07T12:32:02;5.40;99.90
45685;DHT22;46836;48.388;16.210;2023-12-07T12:34:33;5.40;99.90
45685;DHT22;46836;48.388;16.210;2023-12-07T12:37:02;5.40;99.90
45685;DHT22;46836;48.388;16.210;2023-12-07T12:39:34;5.30;99.90
45685;DHT22;46836;48.388;16.210;2023-12-07T12:42:02;5.30;99.90
45685;DHT22;46836;48.388;16.210;2023-12-07T12:44:32;5.30;99.90
45685;DHT22;46836;48.388;16.210;2023-12-07T12:47:08;5.30;99.90
45685;DHT22;46836;48.388;16.210;2023-12-07T12:49:37;5.30;99.90
45685;DHT22;46836;48.388;16.210;2023-12-07T12:52:10;5.30;99.90
45685;DHT22;46836;48.388;16.210;2023-12-07T12:54:39;5.20;99.90
45685;DHT22;46836;48.388;16.210;2023-12-07T12:57:06;5.30;99.90
45685;DHT22;46836;48.388;16.210;2023-12-07T12:59:34;5.30;99.90
45685;DHT22;46836;48.388;16.210;2023-12-07T13:02:05;5.30;99.90
45685;DHT22;46836;48.388;16.210;2023-12-07T13:04:32;5.30;99.90
45685;DHT22;46836;48.388;16.210;2023-12-07T13:07:04;5.20;99.90
45685;DHT22;46836;48.388;16.210;2023-12-07T13:09:31;5.20;99.90
45685;DHT22;46836;48.388;16.210;2023-12-07T13:11:59;5.20;99.90
45685;DHT22;46836;48.388;16.210;2023-12-07T13:14:31;5.20;99.90
45685;DHT22;46836;48.388;16.210;2023-12-07T13:17:06;5.10;99.90
45685;DHT22;46836;48.388;16.210;2023-12-07T13:19:36;5.10;99.90
45685;DHT22;46836;48.388;16.210;2023-12-07T13:22:03;5.10;99.90
45685;DHT22;46836;48.388;16.210;2023-12-07T13:24:31;5.10;99.90
45685;DHT22;46836;48.388;16.210;2023-12-07T13:26:58;5.10;99.90
45685;DHT22;46836;48.388;16.210;2023-12-07T13:29:27;5.10;99.90
45685;DHT22;46836;48.388;16.210;2023-12-07T13:32:03;5.10;99.90
45685;DHT22;46836;48.388;16.210;2023-12-07T13:34:32;5.10;99.90
45685;DHT22;46836;48.388;16.210;2023-12-07T13:36:59;5.10;99.90
45685;DHT22;46836;48.388;16.210;2023-12-07T13:39:26;5.10;99.90
45685;DHT22;46836;48.388;16.210;2023-12-07T13:41:58;5.10;99.90
45685;DHT22;46836;48.388;16.210;2023-12-07T13:44:27;5.10;99.90
45685;DHT22;46836;48.388;16.210;2023-12-07T13:46:55;5.20;99.90
45685;DHT22;46836;48.388;16.210;2023-12-07T13:49:25;5.20;99.90
45685;DHT22;46836;48.388;16.210;2023-12-07T13:52:01;5.20;99.90
45685;DHT22;46836;48.388;16.210;2023-12-07T13:54:38;5.20;99.90
45685;DHT22;46836;48.388;16.210;2023-12-07T13:57:20;5.20;99.90
45685;DHT22;46836;48.388;16.210;2023-12-07T13:59:48;5.20;99.90
45685;DHT22;46836;48.388;16.210;2023-12-07T14:02:18;5.10;99.90
45685;DHT22;46836;48.388;16.210;2023-12-07T14:04:46;5.00;99.90
45685;DHT22;46836;48.388;16.210;2023-12-07T14:07:19;5.00;99.90
45685;DHT22;46836;48.388;16.210;2023-12-07T14:09:50;4.90;99.90
45685;DHT22;46836;48.388;16.210;2023-12-07T14:12:25;4.90;99.90
45685;DHT22;46836;48.388;16.210;2023-12-07T14:14:56;4.80;99.90
45685;DHT22;46836;48.388;16.210;2023-12-07T14:17:23;4.80;99.90
45685;DHT22;46836;48.388;16.210;2023-12-07T14:19:53;4.70;99.90
45685;DHT22;46836;48.388;16.210;2023-12-07T14:22:36;4.70;99.90
45685;DHT22;46836;48.388;16.210;2023-12-07T14:25:04;4.60;99.90
45685;DHT22;46836;48.388;16.210;2023-12-07T14:27:31;4.70;99.90
45685;DHT22;46836;48.388;16.210;2023-12-07T14:29:58;4.60;99.90
45685;DHT22;46836;48.388;16.210;2023-12-07T14:32:26;4.70;99.90
45685;DHT22;46836;48.388;16.210;2023-12-07T14:34:55;4.60;99.90
45685;DHT22;46836;48.388;16.210;2023-12-07T14:37:22;4.60;99.90
45685;DHT22;46836;48.388;16.210;2023-12-07T14:39:50;4.60;99.90
45685;DHT22;46836;48.388;16.210;2023-12-07T14:42:17;4.60;99.90
45685;DHT22;46836;48.388;16.210;2023-12-07T14:44:44;4.60;99.90
45685;DHT22;46836;48.388;16.210;2023-12-07T14:47:11;4.60;99.90
45685;DHT22;46836;48.388;16.210;2023-12-07T14:49:38;4.60;99.90
45685;DHT22;46836;48.388;16.210;2023-12-07T14:52:07;4.50;99.90
45685;DHT22;46836;48.388;16.210;2023-12-07T14:54:36;4.50;99.90
45685;DHT22;46836;48.388;16.210;2023-12-07T14:57:04;4.50;99.90
45685;DHT22;46836;48.388;16.210;2023-12-07T14:59:35;4.50;99.90
45685;DHT22;46836;48.388;16.210;2023-12-07T15:02:02;4.50;99.90
45685;DHT22;46836;48.388;16.210;2023-12-07T15:04:29;4.40;99.90
45685;DHT22;46836;48.388;16.210;2023-12-07T15:07:01;4.40;99.90
45685;DHT22;46836;48.388;16.210;2023-12-07T15:09:31;4.40;99.90
45685;DHT22;46836;48.388;16.210;2023-12-07T15:11:59;4.40;99.90
45685;DHT22;46836;48.388;16.210;2023-12-07T15:14:26;4.40;99.90
45685;DHT22;46836;48.388;16.210;2023-12-07T15:17:04;4.40;99.90
45685;DHT22;46836;48.388;16.210;2023-12-07T15:19:33;4.30;99.90
45685;DHT22;46836;48.388;16.210;2023-12-07T15:22:01;4.30;99.90
45685;DHT22;46836;48.388;16.210;2023-12-07T15:24:28;4.30;99.90
45685;DHT22;46836;48.388;16.210;2023-12-07T15:27:05;4.30;99.90
45685;DHT22;46836;48.388;16.210;2023-12-07T15:29:33;4.30;99.90
45685;DHT22;46836;48.388;16.210;2023-12-07T15:32:04;4.20;99.90
45685;DHT22;46836;48.388;16.210;2023-12-07T15:34:31;4.20;99.90
45685;DHT22;46836;48.388;16.210;2023-12-07T15:37:07;4.20;99.90
45685;DHT22;46836;48.388;16.210;2023-12-07T15:39:40;4.20;99.90
45685;DHT22;46836;48.388;16.210;2023-12-07T15:42:08;4.20;99.90
45685;DHT22;46836;48.388;16.210;2023-12-07T15:44:37;4.10;99.90